createdAt,value
2018-09-24T00:00:45.502Z,35.10
2018-09-24T00:01:45.295Z,35.60
2018-09-24T00:02:45.259Z,40.50
2018-09-24T00:03:45.227Z,39.00
2018-09-24T00:04:45.224Z,39.80
2018-09-24T00:05:45.149Z,37.80
2018-09-24T00:06:45.116Z,40.10
2018-09-24T00:07:45.042Z,36.40
2018-09-24T00:08:45.042Z,34.20
2018-09-24T00:09:44.951Z,35.10
2018-09-24T00:10:44.976Z,38.30
2018-09-24T00:11:44.931Z,33.20
2018-09-24T00:12:44.841Z,36.20
2018-09-24T00:13:44.872Z,34.10
2018-09-24T00:14:44.773Z,34.50
2018-09-24T00:15:44.788Z,39.20
2018-09-24T00:16:44.750Z,31.80
2018-09-24T00:17:44.715Z,32.90
2018-09-24T00:18:44.700Z,34.40
2018-09-24T00:19:44.646Z,34.10
2018-09-24T00:20:44.655Z,34.20
2018-09-24T00:21:44.569Z,37.10
2018-09-24T00:22:44.551Z,37.20
2018-09-24T00:23:44.501Z,35.10
2018-09-24T00:24:44.480Z,35.10
2018-09-24T00:25:44.422Z,33.50
2018-09-24T00:26:44.387Z,32.80
2018-09-24T00:27:44.352Z,35.20
2018-09-24T00:28:44.313Z,36.20
2018-09-24T00:29:44.282Z,35.40
2018-09-24T00:30:44.245Z,35.30
2018-09-24T00:31:44.529Z,33.30
2018-09-24T00:32:44.175Z,36.90
2018-09-24T00:33:44.139Z,34.90
2018-09-24T00:34:44.120Z,42.50
2018-09-24T00:35:44.057Z,40.30
2018-09-24T00:36:44.028Z,34.90
2018-09-24T00:37:43.987Z,37.10
2018-09-24T00:38:43.946Z,37.20
2018-09-24T00:39:43.938Z,36.90
2018-09-24T00:40:43.881Z,35.90
2018-09-24T00:41:43.793Z,37.00
2018-09-24T00:42:43.809Z,40.60
2018-09-24T00:43:43.839Z,37.30
2018-09-24T00:44:43.679Z,34.40
2018-09-24T00:45:43.653Z,37.60
2018-09-24T00:46:43.656Z,36.10
2018-09-24T00:47:43.623Z,36.70
2018-09-24T00:48:43.597Z,37.20
2018-09-24T00:49:43.507Z,39.60
2018-09-24T00:50:43.509Z,39.20
2018-09-24T00:51:43.421Z,35.10
2018-09-24T00:52:43.387Z,41.60
2018-09-24T00:53:43.417Z,35.50
2018-09-24T00:54:43.324Z,40.10
2018-09-24T00:55:43.345Z,41.80
2018-09-24T00:56:43.292Z,37.80
2018-09-24T00:57:43.203Z,41.50
2018-09-24T00:58:43.166Z,34.40
2018-09-24T00:59:43.151Z,37.50
2018-09-24T01:00:43.162Z,38.00
2018-09-24T01:01:43.126Z,34.40
2018-09-24T01:02:43.077Z,39.50
2018-09-24T01:03:43.038Z,36.50
2018-09-24T01:04:43.004Z,38.40
2018-09-24T01:05:42.974Z,36.00
2018-09-24T01:06:42.877Z,36.40
2018-09-24T01:07:42.894Z,41.10
2018-09-24T01:08:42.858Z,37.10
2018-09-24T01:09:42.841Z,37.90
2018-09-24T01:10:42.781Z,35.00
2018-09-24T01:11:42.753Z,35.60
2018-09-24T01:12:42.711Z,36.90
2018-09-24T01:13:42.673Z,35.30
2018-09-24T01:14:42.638Z,34.40
2018-09-24T01:15:42.651Z,30.70
2018-09-24T01:16:42.525Z,33.00
2018-09-24T01:17:42.480Z,36.50
2018-09-24T01:18:42.444Z,41.80
2018-09-24T01:19:42.457Z,33.50
2018-09-24T01:20:42.423Z,30.50
2018-09-24T01:21:42.384Z,36.50
2018-09-24T01:22:42.355Z,38.00
2018-09-24T01:23:42.312Z,35.00
2018-09-24T01:24:42.224Z,37.20
2018-09-24T01:25:42.196Z,35.40
2018-09-24T01:26:42.240Z,33.70
2018-09-24T01:27:42.175Z,33.90
2018-09-24T01:28:42.507Z,28.40
2018-09-24T01:29:42.056Z,40.40
2018-09-24T01:30:42.015Z,37.30
2018-09-24T01:31:41.973Z,38.60
2018-09-24T01:32:41.935Z,35.20
2018-09-24T01:33:41.954Z,29.60
2018-09-24T01:34:41.941Z,33.70
2018-09-24T01:35:42.426Z,35.00
2018-09-24T01:36:41.879Z,32.80
2018-09-24T01:37:41.826Z,34.60
2018-09-24T01:38:41.770Z,35.90
2018-09-24T01:39:41.820Z,34.80
2018-09-24T01:40:41.765Z,32.20
2018-09-24T01:41:41.669Z,29.30
2018-09-24T01:42:41.573Z,30.40
2018-09-24T01:43:41.592Z,29.40
2018-09-24T01:44:41.560Z,34.70
2018-09-24T01:45:41.517Z,34.60
2018-09-24T01:46:41.491Z,30.70
2018-09-24T01:47:41.444Z,36.50
2018-09-24T01:48:41.410Z,32.80
2018-09-24T01:49:41.376Z,30.30
2018-09-24T01:50:41.337Z,39.00
2018-09-24T01:51:41.303Z,30.80
2018-09-24T01:52:41.263Z,31.90
2018-09-24T01:53:41.230Z,30.80
2018-09-24T01:54:41.206Z,31.60
2018-09-24T01:55:41.165Z,33.20
2018-09-24T01:56:41.122Z,31.50
2018-09-24T01:57:41.467Z,32.70
2018-09-24T01:58:41.048Z,34.40
2018-09-24T01:59:41.013Z,31.40
2018-09-24T02:00:41.011Z,31.90
2018-09-24T02:01:40.947Z,40.50
2018-09-24T02:02:40.903Z,31.20
2018-09-24T02:03:40.866Z,31.60
2018-09-24T02:04:40.790Z,26.70
2018-09-24T02:05:40.797Z,31.40
2018-09-24T02:06:40.763Z,29.40
2018-09-24T02:07:40.722Z,40.50
2018-09-24T02:08:40.635Z,31.20
2018-09-24T02:09:40.846Z,30.70
2018-09-24T02:10:40.612Z,34.60
2018-09-24T02:11:40.528Z,26.40
2018-09-24T02:12:40.496Z,28.00
2018-09-24T02:13:40.461Z,31.50
2018-09-24T02:14:40.419Z,31.00
2018-09-24T02:15:40.379Z,26.70
2018-09-24T02:16:40.343Z,26.40
2018-09-24T02:17:40.321Z,25.60
2018-09-24T02:18:40.277Z,29.50
2018-09-24T02:19:40.790Z,32.60
2018-09-24T02:20:40.204Z,31.30
2018-09-24T02:21:40.164Z,24.10
2018-09-24T02:22:40.130Z,32.60
2018-09-24T02:23:40.106Z,29.10
2018-09-24T02:24:40.056Z,26.50
2018-09-24T02:25:40.027Z,26.50
2018-09-24T02:26:39.990Z,26.30
2018-09-24T02:27:39.946Z,21.60
2018-09-24T02:28:39.917Z,27.60
2018-09-24T02:29:39.875Z,33.60
2018-09-24T02:30:39.839Z,26.50
2018-09-24T02:31:39.803Z,27.80
2018-09-24T02:32:39.818Z,27.40
2018-09-24T02:33:39.806Z,25.60
2018-09-24T02:34:39.752Z,26.70
2018-09-24T02:35:39.690Z,26.20
2018-09-24T02:36:39.694Z,30.20
2018-09-24T02:37:39.635Z,31.40
2018-09-24T02:38:39.553Z,25.70
2018-09-24T02:39:39.570Z,26.80
2018-09-24T02:40:39.479Z,30.50
2018-09-24T02:41:39.502Z,26.20
2018-09-24T02:42:39.433Z,27.30
2018-09-24T02:43:39.420Z,24.50
2018-09-24T02:44:39.399Z,28.80
2018-09-24T02:45:39.294Z,31.60
2018-09-24T02:46:39.256Z,26.70
2018-09-24T02:47:39.226Z,30.60
2018-09-24T02:48:39.203Z,25.10
2018-09-24T02:49:39.199Z,25.80
2018-09-24T02:50:39.113Z,34.20
2018-09-24T02:51:39.138Z,27.40
2018-09-24T02:52:39.095Z,27.30
2018-09-24T02:53:39.059Z,26.00
2018-09-24T02:54:39.017Z,25.70
2018-09-24T02:55:39.118Z,29.20
2018-09-24T02:56:38.949Z,25.80
2018-09-24T02:57:38.910Z,27.50
2018-09-24T02:58:38.876Z,24.50
2018-09-24T02:59:38.859Z,27.40
2018-09-24T03:00:38.806Z,26.00
2018-09-24T03:01:38.774Z,36.80
2018-09-24T03:02:38.728Z,29.60
2018-09-24T03:03:38.693Z,26.50
2018-09-24T03:04:38.663Z,24.20
2018-09-24T03:05:38.624Z,30.80
2018-09-24T03:06:38.533Z,30.50
2018-09-24T03:07:38.551Z,30.20
2018-09-24T03:08:38.517Z,28.00
2018-09-24T03:09:38.483Z,27.40
2018-09-24T03:10:38.439Z,34.40
2018-09-24T03:11:38.411Z,28.60
2018-09-24T03:12:38.368Z,26.50
2018-09-24T03:13:38.331Z,28.00
2018-09-24T03:14:38.242Z,21.20
2018-09-24T03:15:38.215Z,25.30
2018-09-24T03:16:38.173Z,30.70
2018-09-24T03:17:38.144Z,26.70
2018-09-24T03:18:38.123Z,25.10
2018-09-24T03:19:38.059Z,26.60
2018-09-24T03:20:38.055Z,23.90
2018-09-24T03:21:37.993Z,30.80
2018-09-24T03:22:37.954Z,27.70
2018-09-24T03:23:37.924Z,29.80
2018-09-24T03:24:37.877Z,23.80
2018-09-24T03:25:37.842Z,29.30
2018-09-24T03:26:37.809Z,34.50
2018-09-24T03:27:37.777Z,29.20
2018-09-24T03:28:37.740Z,28.20
2018-09-24T03:29:37.711Z,26.40
2018-09-24T03:30:37.665Z,27.40
2018-09-24T03:31:37.656Z,32.60
2018-09-24T03:32:37.634Z,28.20
2018-09-24T03:33:37.553Z,27.80
2018-09-24T03:34:37.519Z,24.00
2018-09-24T03:35:37.481Z,29.10
2018-09-24T03:36:37.455Z,33.00
2018-09-24T03:37:37.405Z,27.00
2018-09-24T03:38:37.373Z,25.90
2018-09-24T03:39:37.337Z,22.90
2018-09-24T03:40:37.298Z,24.80
2018-09-24T03:41:37.268Z,31.00
2018-09-24T03:42:37.229Z,25.80
2018-09-24T03:43:37.186Z,30.30
2018-09-24T03:44:37.216Z,25.60
2018-09-24T03:45:37.174Z,30.10
2018-09-24T03:46:37.133Z,27.20
2018-09-24T03:47:37.095Z,27.80
2018-09-24T03:48:37.009Z,27.50
2018-09-24T03:49:37.029Z,19.80
2018-09-24T03:50:36.994Z,28.50
2018-09-24T03:51:37.060Z,25.40
2018-09-24T03:52:36.863Z,27.00
2018-09-24T03:53:36.826Z,21.60
2018-09-24T03:54:36.851Z,26.30
2018-09-24T03:55:36.760Z,29.10
2018-09-24T03:56:36.814Z,24.10
2018-09-24T03:57:36.733Z,26.80
2018-09-24T03:58:36.694Z,26.30
2018-09-24T03:59:36.659Z,27.20
2018-09-24T04:00:36.625Z,30.70
2018-09-24T04:01:36.597Z,27.40
2018-09-24T04:02:36.555Z,24.40
2018-09-24T04:03:36.517Z,26.40
2018-09-24T04:04:36.474Z,31.30
2018-09-24T04:05:36.439Z,30.70
2018-09-24T04:06:36.400Z,26.00
2018-09-24T04:07:36.402Z,28.80
2018-09-24T04:08:36.362Z,27.70
2018-09-24T04:09:36.309Z,27.50
2018-09-24T04:10:36.257Z,27.70
2018-09-24T04:11:36.221Z,25.60
2018-09-24T04:12:36.190Z,27.90
2018-09-24T04:13:36.164Z,20.20
2018-09-24T04:14:36.116Z,28.20
2018-09-24T04:15:36.077Z,27.50
2018-09-24T04:16:36.042Z,24.40
2018-09-24T04:17:36.012Z,25.80
2018-09-24T04:18:35.964Z,26.10
2018-09-24T04:19:35.979Z,21.10
2018-09-24T04:20:35.894Z,28.40
2018-09-24T04:21:35.876Z,28.60
2018-09-24T04:22:35.825Z,25.80
2018-09-24T04:23:35.791Z,28.30
2018-09-24T04:24:35.751Z,32.10
2018-09-24T04:25:35.714Z,22.50
2018-09-24T04:26:35.679Z,19.60
2018-09-24T04:27:35.647Z,22.40
2018-09-24T04:28:35.558Z,22.00
2018-09-24T04:29:35.571Z,22.40
2018-09-24T04:30:35.531Z,20.80
2018-09-24T04:31:35.511Z,26.20
2018-09-24T04:32:35.459Z,23.30
2018-09-24T04:33:35.420Z,18.50
2018-09-24T04:34:35.411Z,25.40
2018-09-24T04:35:35.348Z,21.50
2018-09-24T04:36:35.311Z,22.40
2018-09-24T04:37:35.281Z,24.70
2018-09-24T04:38:35.238Z,24.10
2018-09-24T04:39:35.306Z,23.50
2018-09-24T04:40:35.174Z,29.30
2018-09-24T04:41:35.130Z,29.70
2018-09-24T04:42:35.091Z,25.80
2018-09-24T04:43:35.962Z,30.40
2018-09-24T04:44:35.028Z,29.70
2018-09-24T04:45:34.985Z,28.20
2018-09-24T04:46:34.893Z,32.70
2018-09-24T04:47:34.860Z,31.80
2018-09-24T04:48:34.824Z,33.30
2018-09-24T04:49:34.861Z,31.70
2018-09-24T04:50:34.952Z,36.90
2018-09-24T04:51:34.763Z,23.40
2018-09-24T04:52:34.730Z,26.70
2018-09-24T04:53:34.695Z,35.90
2018-09-24T04:54:34.659Z,35.80
2018-09-24T04:55:34.621Z,32.00
2018-09-24T04:56:34.531Z,31.40
2018-09-24T04:57:34.702Z,34.50
2018-09-24T04:58:34.533Z,27.60
2018-09-24T04:59:34.475Z,29.50
2018-09-24T05:00:34.444Z,27.90
2018-09-24T05:01:34.435Z,29.50
2018-09-24T05:02:34.371Z,36.30
2018-09-24T05:03:34.331Z,32.70
2018-09-24T05:04:34.320Z,48.10
2018-09-24T05:05:34.251Z,29.90
2018-09-24T05:06:34.221Z,36.00
2018-09-24T05:07:34.182Z,36.80
2018-09-24T05:08:34.148Z,33.60
2018-09-24T05:09:34.115Z,33.30
2018-09-24T05:10:34.087Z,26.10
2018-09-24T05:11:34.035Z,25.20
2018-09-24T05:12:34.005Z,34.50
2018-09-24T05:13:33.962Z,38.30
2018-09-24T05:14:33.924Z,24.50
2018-09-24T05:15:33.900Z,31.00
2018-09-24T05:16:33.900Z,32.00
2018-09-24T05:17:33.819Z,32.90
2018-09-24T05:18:33.783Z,34.80
2018-09-24T05:19:33.743Z,31.50
2018-09-24T05:20:33.711Z,28.20
2018-09-24T05:21:33.675Z,46.80
2018-09-24T05:22:33.653Z,24.00
2018-09-24T05:23:33.604Z,31.70
2018-09-24T05:24:33.564Z,31.20
2018-09-24T05:25:33.532Z,20.50
2018-09-24T05:26:33.494Z,26.60
2018-09-24T05:27:33.454Z,23.60
2018-09-24T05:28:33.443Z,25.90
2018-09-24T05:29:33.404Z,25.90
2018-09-24T05:30:33.346Z,27.10
2018-09-24T05:31:33.305Z,30.20
2018-09-24T05:32:33.298Z,28.60
2018-09-24T05:33:33.233Z,23.60
2018-09-24T05:34:33.261Z,27.50
2018-09-24T05:35:33.198Z,26.20
2018-09-24T05:36:33.124Z,25.40
2018-09-24T05:37:33.087Z,33.10
2018-09-24T05:38:33.084Z,34.80
2018-09-24T05:39:33.017Z,23.20
2018-09-24T05:40:32.979Z,25.50
2018-09-24T05:41:32.951Z,24.60
2018-09-24T05:42:32.902Z,25.60
2018-09-24T05:43:32.870Z,28.80
2018-09-24T05:44:32.846Z,25.20
2018-09-24T05:45:32.804Z,26.00
2018-09-24T05:46:32.757Z,19.30
2018-09-24T05:47:32.721Z,30.20
2018-09-24T05:48:32.635Z,22.50
2018-09-24T05:49:32.650Z,19.50
2018-09-24T05:50:32.658Z,24.00
2018-09-24T05:51:32.576Z,32.10
2018-09-24T05:52:32.539Z,25.40
2018-09-24T05:53:32.511Z,34.40
2018-09-24T05:54:32.468Z,25.40
2018-09-24T05:55:32.516Z,22.10
2018-09-24T05:56:32.399Z,30.50
2018-09-24T05:57:32.368Z,25.10
2018-09-24T05:58:32.330Z,32.00
2018-09-24T05:59:32.289Z,29.90
2018-09-24T06:00:32.257Z,26.50
2018-09-24T06:01:32.233Z,27.20
2018-09-24T06:02:32.181Z,28.80
2018-09-24T06:03:32.146Z,23.90
2018-09-24T06:04:32.145Z,21.10
2018-09-24T06:05:32.075Z,34.20
2018-09-24T06:06:32.041Z,23.30
2018-09-24T06:07:32.002Z,41.50
2018-09-24T06:08:31.971Z,23.10
2018-09-24T06:09:31.932Z,41.40
2018-09-24T06:10:31.896Z,27.10
2018-09-24T06:11:31.863Z,34.20
2018-09-24T06:12:31.897Z,23.50
2018-09-24T06:13:31.807Z,25.80
2018-09-24T06:14:31.750Z,26.10
2018-09-24T06:15:31.722Z,27.50
2018-09-24T06:16:31.678Z,22.10
2018-09-24T06:17:31.649Z,26.80
2018-09-24T06:18:31.607Z,30.70
2018-09-24T06:19:31.572Z,26.60
2018-09-24T06:20:31.547Z,22.70
2018-09-24T06:21:31.505Z,26.40
2018-09-24T06:22:31.467Z,48.10
2018-09-24T06:23:31.435Z,23.50
2018-09-24T06:24:31.399Z,28.40
2018-09-24T06:25:31.364Z,26.00
2018-09-24T06:26:31.327Z,25.30
2018-09-24T06:27:31.304Z,26.80
2018-09-24T06:28:31.326Z,26.00
2018-09-24T06:29:31.218Z,24.50
2018-09-24T06:30:31.188Z,26.90
2018-09-24T06:31:31.145Z,25.50
2018-09-24T06:32:31.117Z,20.50
2018-09-24T06:33:31.084Z,25.70
2018-09-24T06:34:31.043Z,20.70
2018-09-24T06:35:31.011Z,21.70
2018-09-24T06:36:30.974Z,20.60
2018-09-24T06:37:30.940Z,22.10
2018-09-24T06:38:30.904Z,26.70
2018-09-24T06:39:30.869Z,26.50
2018-09-24T06:40:30.833Z,22.10
2018-09-24T06:41:30.803Z,19.30
2018-09-24T06:42:31.564Z,25.20
2018-09-24T06:43:30.725Z,21.60
2018-09-24T06:44:30.695Z,25.10
2018-09-24T06:45:30.660Z,20.90
2018-09-24T06:46:30.625Z,18.20
2018-09-24T06:47:30.596Z,26.60
2018-09-24T06:48:30.558Z,24.80
2018-09-24T06:49:30.568Z,32.80
2018-09-24T06:50:30.494Z,21.30
2018-09-24T06:51:30.451Z,19.60
2018-09-24T06:52:30.419Z,30.30
2018-09-24T06:53:30.387Z,27.80
2018-09-24T06:54:30.351Z,25.50
2018-09-24T06:55:30.917Z,26.60
2018-09-24T06:56:30.281Z,22.90
2018-09-24T06:57:30.251Z,19.50
2018-09-24T06:58:30.213Z,25.80
2018-09-24T06:59:30.201Z,22.70
2018-09-24T07:00:30.145Z,30.00
2018-09-24T07:01:30.115Z,22.30
2018-09-24T07:02:30.075Z,18.70
2018-09-24T07:03:30.044Z,27.90
2018-09-24T07:04:30.028Z,22.50
2018-09-24T07:05:30.053Z,25.10
2018-09-24T07:06:29.946Z,22.90
2018-09-24T07:07:29.914Z,24.00
2018-09-24T07:08:29.879Z,24.70
2018-09-24T07:09:29.846Z,31.40
2018-09-24T07:10:29.812Z,24.50
2018-09-24T07:11:29.777Z,21.90
2018-09-24T07:12:29.748Z,46.50
2018-09-24T07:13:29.722Z,32.40
2018-09-24T07:14:29.682Z,27.10
2018-09-24T07:15:29.652Z,24.90
2018-09-24T07:16:29.617Z,20.20
2018-09-24T07:17:29.585Z,25.20
2018-09-24T07:18:29.548Z,18.70
2018-09-24T07:19:29.518Z,21.20
2018-09-24T07:20:29.486Z,25.30
2018-09-24T07:21:29.468Z,19.10
2018-09-24T07:22:29.372Z,21.20
2018-09-24T07:23:29.337Z,25.40
2018-09-24T07:24:29.358Z,27.20
2018-09-24T07:25:29.276Z,21.70
2018-09-24T07:26:29.242Z,23.10
2018-09-24T07:27:29.243Z,22.20
2018-09-24T07:28:29.229Z,31.00
2018-09-24T07:29:29.153Z,21.00
2018-09-24T07:30:29.122Z,24.70
2018-09-24T07:31:29.085Z,25.90
2018-09-24T07:32:29.058Z,24.60
2018-09-24T07:33:29.193Z,23.50
2018-09-24T07:34:28.996Z,23.50
2018-09-24T07:35:28.962Z,24.30
2018-09-24T07:36:28.929Z,28.40
2018-09-24T07:37:28.902Z,21.20
2018-09-24T07:38:28.866Z,19.60
2018-09-24T07:39:28.841Z,23.50
2018-09-24T07:40:28.806Z,19.00
2018-09-24T07:41:28.783Z,21.60
2018-09-24T07:42:28.749Z,21.30
2018-09-24T07:43:28.794Z,25.00
2018-09-24T07:44:28.687Z,23.50
2018-09-24T07:45:28.654Z,19.50
2018-09-24T07:46:28.625Z,24.50
2018-09-24T07:47:28.594Z,21.10
2018-09-24T07:48:28.566Z,18.00
2018-09-24T07:49:28.568Z,17.20
2018-09-24T07:50:28.505Z,22.10
2018-09-24T07:51:28.475Z,18.90
2018-09-24T07:52:28.450Z,18.90
2018-09-24T07:53:28.417Z,15.90
2018-09-24T07:54:28.390Z,17.30
2018-09-24T07:55:28.408Z,18.30
2018-09-24T07:56:28.330Z,18.70
2018-09-24T07:57:28.298Z,18.20
2018-09-24T07:58:28.269Z,17.50
2018-09-24T07:59:28.242Z,14.10
2018-09-24T08:00:28.217Z,24.90
2018-09-24T08:01:28.184Z,13.10
2018-09-24T08:02:28.157Z,18.90
2018-09-24T08:03:28.124Z,16.00
2018-09-24T08:04:28.098Z,19.60
2018-09-24T08:05:28.066Z,16.40
2018-09-24T08:06:28.057Z,19.60
2018-09-24T08:07:28.058Z,13.80
2018-09-24T08:08:28.003Z,14.60
2018-09-24T08:09:27.953Z,13.60
2018-09-24T08:10:27.929Z,17.20
2018-09-24T08:11:27.894Z,15.40
2018-09-24T08:12:27.868Z,15.70
2018-09-24T08:13:27.841Z,15.50
2018-09-24T08:14:27.814Z,22.30
2018-09-24T08:15:27.784Z,14.00
2018-09-24T08:16:27.755Z,19.80
2018-09-24T08:17:27.728Z,16.40
2018-09-24T08:18:27.701Z,16.80
2018-09-24T08:19:27.672Z,12.50
2018-09-24T08:20:27.660Z,14.40
2018-09-24T08:21:27.618Z,13.90
2018-09-24T08:22:27.593Z,19.80
2018-09-24T08:23:27.562Z,19.90
2018-09-24T08:24:27.590Z,17.70
2018-09-24T08:25:27.509Z,16.60
2018-09-24T08:26:27.477Z,19.30
2018-09-24T08:27:27.450Z,14.20
2018-09-24T08:28:27.424Z,17.70
2018-09-24T08:29:27.398Z,12.10
2018-09-24T08:30:27.384Z,14.90
2018-09-24T08:31:27.348Z,14.40
2018-09-24T08:32:27.315Z,19.20
2018-09-24T08:33:27.288Z,14.80
2018-09-24T08:34:27.316Z,17.20
2018-09-24T08:35:27.260Z,14.80
2018-09-24T08:36:27.206Z,18.30
2018-09-24T08:37:27.182Z,19.80
2018-09-24T08:38:27.163Z,19.30
2018-09-24T08:39:27.125Z,20.20
2018-09-24T08:40:27.100Z,17.20
2018-09-24T08:41:27.075Z,21.20
2018-09-24T08:42:27.047Z,13.90
2018-09-24T08:43:27.020Z,15.00
2018-09-24T08:44:26.994Z,15.40
2018-09-24T08:45:26.969Z,18.10
2018-09-24T08:46:26.946Z,14.40
2018-09-24T08:47:26.972Z,17.50
2018-09-24T08:48:26.889Z,15.10
2018-09-24T08:49:26.866Z,12.70
2018-09-24T08:50:27.658Z,12.50
2018-09-24T08:51:26.863Z,15.30
2018-09-24T08:52:26.836Z,11.60
2018-09-24T08:53:26.861Z,20.60
2018-09-24T08:54:26.785Z,16.00
2018-09-24T08:55:26.762Z,16.00
2018-09-24T08:56:26.737Z,13.50
2018-09-24T08:57:26.708Z,21.10
2018-09-24T08:58:26.686Z,16.80
2018-09-24T08:59:26.658Z,15.30
2018-09-24T09:00:26.642Z,9.80
2018-09-24T09:01:26.609Z,11.90
2018-09-24T09:02:26.578Z,18.70
2018-09-24T09:03:26.592Z,14.30
2018-09-24T09:04:26.531Z,15.30
2018-09-24T09:05:26.502Z,11.70
2018-09-24T09:06:26.476Z,18.10
2018-09-24T09:07:26.448Z,15.90
2018-09-24T09:08:26.545Z,13.40
2018-09-24T09:09:26.399Z,16.60
2018-09-24T09:10:26.376Z,16.50
2018-09-24T09:11:26.361Z,10.00
2018-09-24T09:12:26.326Z,15.40
2018-09-24T09:13:26.296Z,10.70
2018-09-24T09:14:26.268Z,15.50
2018-09-24T09:15:26.244Z,12.20
2018-09-24T09:16:26.273Z,13.90
2018-09-24T09:17:26.194Z,13.70
2018-09-24T09:18:26.164Z,13.20
2018-09-24T09:19:26.138Z,13.20
2018-09-24T09:20:26.136Z,12.30
2018-09-24T09:21:26.087Z,11.50
2018-09-24T09:22:26.066Z,14.50
2018-09-24T09:23:26.040Z,16.00
2018-09-24T09:24:26.013Z,15.10
2018-09-24T09:25:25.985Z,14.20
2018-09-24T09:26:25.960Z,16.90
2018-09-24T09:27:25.934Z,12.20
2018-09-24T09:28:25.915Z,13.60
2018-09-24T09:29:25.916Z,14.70
2018-09-24T09:30:25.853Z,13.70
2018-09-24T09:31:25.832Z,11.00
2018-09-24T09:32:25.807Z,12.50
2018-09-24T09:33:25.778Z,21.40
2018-09-24T09:34:25.754Z,13.60
2018-09-24T09:35:25.724Z,17.20
2018-09-24T09:36:25.700Z,13.50
2018-09-24T09:37:25.676Z,14.80
2018-09-24T09:38:25.648Z,14.50
2018-09-24T09:39:25.617Z,11.30
2018-09-24T09:40:25.597Z,15.90
2018-09-24T09:41:25.567Z,21.50
2018-09-24T09:42:25.493Z,12.10
2018-09-24T09:43:25.511Z,12.70
2018-09-24T09:44:25.428Z,11.20
2018-09-24T09:45:25.402Z,13.80
2018-09-24T09:46:25.375Z,10.20
2018-09-24T09:47:25.349Z,10.30
2018-09-24T09:48:25.312Z,9.00
2018-09-24T09:49:25.283Z,11.00
2018-09-24T09:50:25.256Z,7.70
2018-09-24T09:51:25.225Z,12.40
2018-09-24T09:52:25.196Z,9.20
2018-09-24T09:53:25.169Z,9.30
2018-09-24T09:54:25.140Z,14.60
2018-09-24T09:55:25.114Z,10.40
2018-09-24T09:56:25.083Z,15.20
2018-09-24T09:57:25.072Z,8.50
2018-09-24T09:58:25.033Z,9.10
2018-09-24T09:59:25.010Z,11.00
2018-09-24T10:00:24.976Z,8.50
2018-09-24T10:01:24.952Z,8.00
2018-09-24T10:02:24.919Z,12.30
2018-09-24T10:03:24.893Z,9.00
2018-09-24T10:04:24.869Z,9.30
2018-09-24T10:05:24.855Z,9.10
2018-09-24T10:06:24.820Z,7.60
2018-09-24T10:07:24.841Z,7.40
2018-09-24T10:08:24.767Z,6.00
2018-09-24T10:09:24.743Z,6.60
